sensor_id;sensor_type;location;lat;lon;timestamp;P1;durP1;ratioP1;P2;durP2;ratioP2
18378;SDS011;27025;51.986;5.984;2023-02-11T00:02:02;26.10;;;19.02;;
18378;SDS011;27025;51.986;5.984;2023-02-11T00:04:29;30.63;;;18.00;;
18378;SDS011;27025;51.986;5.984;2023-02-11T00:06:55;30.33;;;18.17;;
18378;SDS011;27025;51.986;5.984;2023-02-11T00:09:21;26.65;;;17.38;;
18378;SDS011;27025;51.986;5.984;2023-02-11T00:11:47;23.33;;;14.40;;
18378;SDS011;27025;51.986;5.984;2023-02-11T00:14:13;26.37;;;14.50;;
18378;SDS011;27025;51.986;5.984;2023-02-11T00:16:40;19.10;;;13.23;;
18378;SDS011;27025;51.986;5.984;2023-02-11T00:19:06;19.27;;;11.77;;
18378;SDS011;27025;51.986;5.984;2023-02-11T00:21:32;21.33;;;12.53;;
18378;SDS011;27025;51.986;5.984;2023-02-11T00:23:59;29.70;;;14.57;;
18378;SDS011;27025;51.986;5.984;2023-02-11T00:26:33;25.92;;;13.43;;
18378;SDS011;27025;51.986;5.984;2023-02-11T00:29:00;23.67;;;13.90;;
18378;SDS011;27025;51.986;5.984;2023-02-11T00:31:27;23.27;;;12.23;;
18378;SDS011;27025;51.986;5.984;2023-02-11T00:33:53;23.63;;;13.13;;
18378;SDS011;27025;51.986;5.984;2023-02-11T00:36:23;19.67;;;12.33;;
18378;SDS011;27025;51.986;5.984;2023-02-11T00:38:50;23.40;;;13.18;;
18378;SDS011;27025;51.986;5.984;2023-02-11T00:41:16;22.63;;;13.10;;
18378;SDS011;27025;51.986;5.984;2023-02-11T00:43:42;27.27;;;11.70;;
18378;SDS011;27025;51.986;5.984;2023-02-11T00:46:09;24.73;;;12.68;;
18378;SDS011;27025;51.986;5.984;2023-02-11T00:48:35;22.02;;;10.90;;
18378;SDS011;27025;51.986;5.984;2023-02-11T00:51:01;21.13;;;11.20;;
18378;SDS011;27025;51.986;5.984;2023-02-11T00:53:28;25.60;;;12.10;;
18378;SDS011;27025;51.986;5.984;2023-02-11T00:55:54;25.40;;;12.70;;
18378;SDS011;27025;51.986;5.984;2023-02-11T00:58:20;28.47;;;10.57;;
18378;SDS011;27025;51.986;5.984;2023-02-11T01:00:46;22.27;;;9.87;;
18378;SDS011;27025;51.986;5.984;2023-02-11T01:03:13;24.23;;;11.13;;
18378;SDS011;27025;51.986;5.984;2023-02-11T01:05:44;22.23;;;11.23;;
18378;SDS011;27025;51.986;5.984;2023-02-11T01:08:11;21.73;;;10.07;;
18378;SDS011;27025;51.986;5.984;2023-02-11T01:10:37;25.55;;;11.93;;
18378;SDS011;27025;51.986;5.984;2023-02-11T01:13:03;25.27;;;10.33;;
18378;SDS011;27025;51.986;5.984;2023-02-11T01:15:30;22.37;;;10.03;;
18378;SDS011;27025;51.986;5.984;2023-02-11T01:17:56;23.42;;;12.00;;
18378;SDS011;27025;51.986;5.984;2023-02-11T01:20:23;24.30;;;12.32;;
18378;SDS011;27025;51.986;5.984;2023-02-11T01:22:50;24.00;;;11.82;;
18378;SDS011;27025;51.986;5.984;2023-02-11T01:25:16;24.88;;;12.00;;
18378;SDS011;27025;51.986;5.984;2023-02-11T01:27:42;27.25;;;11.98;;
18378;SDS011;27025;51.986;5.984;2023-02-11T01:30:08;24.20;;;11.75;;
18378;SDS011;27025;51.986;5.984;2023-02-11T01:32:35;24.55;;;11.38;;
18378;SDS011;27025;51.986;5.984;2023-02-11T01:35:01;27.77;;;11.85;;
18378;SDS011;27025;51.986;5.984;2023-02-11T01:37:27;30.23;;;11.85;;
18378;SDS011;27025;51.986;5.984;2023-02-11T01:39:53;27.38;;;11.52;;
18378;SDS011;27025;51.986;5.984;2023-02-11T01:42:20;23.30;;;11.70;;
18378;SDS011;27025;51.986;5.984;2023-02-11T01:44:49;25.27;;;12.27;;
18378;SDS011;27025;51.986;5.984;2023-02-11T01:47:16;25.75;;;11.43;;
18378;SDS011;27025;51.986;5.984;2023-02-11T01:49:46;26.17;;;11.27;;
18378;SDS011;27025;51.986;5.984;2023-02-11T01:52:18;25.88;;;11.65;;
18378;SDS011;27025;51.986;5.984;2023-02-11T01:54:50;24.38;;;11.57;;
18378;SDS011;27025;51.986;5.984;2023-02-11T01:57:37;22.97;;;9.37;;
18378;SDS011;27025;51.986;5.984;2023-02-11T02:08:07;21.23;;;10.63;;
18378;SDS011;27025;51.986;5.984;2023-02-11T02:10:35;23.30;;;9.60;;
18378;SDS011;27025;51.986;5.984;2023-02-11T02:13:02;22.93;;;9.83;;
18378;SDS011;27025;51.986;5.984;2023-02-11T02:15:32;29.87;;;11.50;;
18378;SDS011;27025;51.986;5.984;2023-02-11T02:18:18;28.35;;;11.05;;
18378;SDS011;27025;51.986;5.984;2023-02-11T02:21:02;24.13;;;10.13;;
18378;SDS011;27025;51.986;5.984;2023-02-11T02:31:30;22.30;;;9.87;;
18378;SDS011;27025;51.986;5.984;2023-02-11T02:34:03;23.63;;;9.67;;
18378;SDS011;27025;51.986;5.984;2023-02-11T02:36:33;19.37;;;10.03;;
18378;SDS011;27025;51.986;5.984;2023-02-11T02:39:05;25.17;;;10.43;;
18378;SDS011;27025;51.986;5.984;2023-02-11T02:41:32;23.63;;;9.83;;
18378;SDS011;27025;51.986;5.984;2023-02-11T02:43:59;22.40;;;9.70;;
18378;SDS011;27025;51.986;5.984;2023-02-11T02:46:27;24.55;;;11.10;;
18378;SDS011;27025;51.986;5.984;2023-02-11T02:48:54;24.97;;;10.07;;
18378;SDS011;27025;51.986;5.984;2023-02-11T02:56:13;24.77;;;11.10;;
18378;SDS011;27025;51.986;5.984;2023-02-11T03:06:32;29.40;;;11.70;;
18378;SDS011;27025;51.986;5.984;2023-02-11T03:09:01;26.92;;;11.48;;
18378;SDS011;27025;51.986;5.984;2023-02-11T03:11:29;29.88;;;12.07;;
18378;SDS011;27025;51.986;5.984;2023-02-11T03:13:55;24.33;;;11.60;;
18378;SDS011;27025;51.986;5.984;2023-02-11T03:16:25;19.77;;;9.83;;
18378;SDS011;27025;51.986;5.984;2023-02-11T03:18:54;24.58;;;11.45;;
18378;SDS011;27025;51.986;5.984;2023-02-11T03:21:21;25.43;;;10.33;;
18378;SDS011;27025;51.986;5.984;2023-02-11T03:23:50;26.53;;;10.40;;
18378;SDS011;27025;51.986;5.984;2023-02-11T03:26:25;25.27;;;11.70;;
18378;SDS011;27025;51.986;5.984;2023-02-11T03:31:42;26.08;;;12.45;;
18378;SDS011;27025;51.986;5.984;2023-02-11T03:34:13;26.43;;;11.00;;
18378;SDS011;27025;51.986;5.984;2023-02-11T03:36:42;30.65;;;13.02;;
18378;SDS011;27025;51.986;5.984;2023-02-11T03:39:11;27.67;;;11.43;;
18378;SDS011;27025;51.986;5.984;2023-02-11T03:41:39;27.43;;;11.93;;
18378;SDS011;27025;51.986;5.984;2023-02-11T03:44:06;22.43;;;11.20;;
18378;SDS011;27025;51.986;5.984;2023-02-11T03:46:35;27.70;;;11.17;;
18378;SDS011;27025;51.986;5.984;2023-02-11T03:49:03;31.48;;;12.30;;
18378;SDS011;27025;51.986;5.984;2023-02-11T03:51:30;29.60;;;12.00;;
18378;SDS011;27025;51.986;5.984;2023-02-11T03:53:57;31.80;;;13.82;;
18378;SDS011;27025;51.986;5.984;2023-02-11T03:56:25;25.27;;;12.33;;
18378;SDS011;27025;51.986;5.984;2023-02-11T03:58:52;27.53;;;12.07;;
18378;SDS011;27025;51.986;5.984;2023-02-11T04:01:18;23.53;;;12.20;;
18378;SDS011;27025;51.986;5.984;2023-02-11T04:03:44;26.10;;;11.77;;
18378;SDS011;27025;51.986;5.984;2023-02-11T04:06:10;28.97;;;11.53;;
18378;SDS011;27025;51.986;5.984;2023-02-11T04:08:36;26.20;;;11.77;;
18378;SDS011;27025;51.986;5.984;2023-02-11T04:11:02;21.90;;;12.47;;
18378;SDS011;27025;51.986;5.984;2023-02-11T04:13:28;25.97;;;12.23;;
18378;SDS011;27025;51.986;5.984;2023-02-11T04:15:54;26.87;;;13.03;;
18378;SDS011;27025;51.986;5.984;2023-02-11T04:18:20;26.83;;;12.67;;
18378;SDS011;27025;51.986;5.984;2023-02-11T04:20:46;29.03;;;13.43;;
18378;SDS011;27025;51.986;5.984;2023-02-11T04:23:12;28.70;;;13.57;;
18378;SDS011;27025;51.986;5.984;2023-02-11T04:25:38;28.53;;;13.20;;
18378;SDS011;27025;51.986;5.984;2023-02-11T04:28:04;33.20;;;16.67;;
18378;SDS011;27025;51.986;5.984;2023-02-11T04:30:30;28.75;;;16.05;;
18378;SDS011;27025;51.986;5.984;2023-02-11T04:32:57;33.33;;;16.65;;
18378;SDS011;27025;51.986;5.984;2023-02-11T04:35:23;27.23;;;13.53;;
18378;SDS011;27025;51.986;5.984;2023-02-11T04:37:49;30.60;;;14.73;;
18378;SDS011;27025;51.986;5.984;2023-02-11T04:40:15;26.47;;;14.17;;
18378;SDS011;27025;51.986;5.984;2023-02-11T04:42:41;27.80;;;14.17;;
18378;SDS011;27025;51.986;5.984;2023-02-11T04:45:07;32.33;;;15.82;;
18378;SDS011;27025;51.986;5.984;2023-02-11T04:47:33;32.77;;;15.37;;
18378;SDS011;27025;51.986;5.984;2023-02-11T04:50:00;29.00;;;15.13;;
18378;SDS011;27025;51.986;5.984;2023-02-11T04:52:26;31.10;;;15.03;;
18378;SDS011;27025;51.986;5.984;2023-02-11T04:54:52;33.27;;;14.57;;
18378;SDS011;27025;51.986;5.984;2023-02-11T04:57:18;27.83;;;14.10;;
18378;SDS011;27025;51.986;5.984;2023-02-11T04:59:44;26.17;;;14.53;;
18378;SDS011;27025;51.986;5.984;2023-02-11T05:02:10;27.20;;;15.17;;
18378;SDS011;27025;51.986;5.984;2023-02-11T05:04:36;34.60;;;15.87;;
18378;SDS011;27025;51.986;5.984;2023-02-11T05:07:02;30.00;;;15.67;;
18378;SDS011;27025;51.986;5.984;2023-02-11T05:09:28;33.50;;;18.98;;
18378;SDS011;27025;51.986;5.984;2023-02-11T05:11:54;34.40;;;20.27;;
18378;SDS011;27025;51.986;5.984;2023-02-11T05:14:20;33.35;;;19.42;;
18378;SDS011;27025;51.986;5.984;2023-02-11T05:16:46;37.50;;;20.60;;
18378;SDS011;27025;51.986;5.984;2023-02-11T05:19:12;38.23;;;18.03;;
18378;SDS011;27025;51.986;5.984;2023-02-11T05:21:38;31.23;;;16.23;;
18378;SDS011;27025;51.986;5.984;2023-02-11T05:24:04;28.63;;;16.70;;
18378;SDS011;27025;51.986;5.984;2023-02-11T05:26:30;40.10;;;21.33;;
18378;SDS011;27025;51.986;5.984;2023-02-11T05:28:56;34.40;;;20.27;;
18378;SDS011;27025;51.986;5.984;2023-02-11T05:31:22;32.63;;;20.00;;
18378;SDS011;27025;51.986;5.984;2023-02-11T05:33:48;36.60;;;21.02;;
18378;SDS011;27025;51.986;5.984;2023-02-11T05:36:14;34.13;;;18.30;;
18378;SDS011;27025;51.986;5.984;2023-02-11T05:38:40;34.33;;;17.53;;
18378;SDS011;27025;51.986;5.984;2023-02-11T05:41:07;31.70;;;17.83;;
18378;SDS011;27025;51.986;5.984;2023-02-11T05:43:33;33.42;;;19.58;;
18378;SDS011;27025;51.986;5.984;2023-02-11T05:46:00;35.40;;;18.20;;
18378;SDS011;27025;51.986;5.984;2023-02-11T05:48:26;37.90;;;21.30;;
18378;SDS011;27025;51.986;5.984;2023-02-11T05:50:52;33.30;;;18.97;;
18378;SDS011;27025;51.986;5.984;2023-02-11T05:53:18;33.10;;;17.67;;
18378;SDS011;27025;51.986;5.984;2023-02-11T05:55:44;32.75;;;18.48;;
18378;SDS011;27025;51.986;5.984;2023-02-11T05:58:11;35.80;;;18.87;;
18378;SDS011;27025;51.986;5.984;2023-02-11T06:00:37;30.27;;;18.17;;
18378;SDS011;27025;51.986;5.984;2023-02-11T06:03:03;37.92;;;23.48;;
18378;SDS011;27025;51.986;5.984;2023-02-11T06:05:30;35.33;;;21.20;;
18378;SDS011;27025;51.986;5.984;2023-02-11T06:07:56;33.50;;;19.67;;
18378;SDS011;27025;51.986;5.984;2023-02-11T06:10:22;38.27;;;23.53;;
18378;SDS011;27025;51.986;5.984;2023-02-11T06:12:48;33.90;;;20.67;;
18378;SDS011;27025;51.986;5.984;2023-02-11T06:15:14;38.37;;;20.73;;
18378;SDS011;27025;51.986;5.984;2023-02-11T06:17:40;42.63;;;21.87;;
18378;SDS011;27025;51.986;5.984;2023-02-11T06:20:06;39.97;;;21.17;;
18378;SDS011;27025;51.986;5.984;2023-02-11T06:22:33;41.20;;;23.07;;
18378;SDS011;27025;51.986;5.984;2023-02-11T06:24:59;45.97;;;22.40;;
18378;SDS011;27025;51.986;5.984;2023-02-11T06:27:25;37.93;;;23.03;;
18378;SDS011;27025;51.986;5.984;2023-02-11T06:29:51;44.03;;;25.45;;
18378;SDS011;27025;51.986;5.984;2023-02-11T06:32:17;47.92;;;28.65;;
18378;SDS011;27025;51.986;5.984;2023-02-11T06:34:44;47.28;;;29.38;;
18378;SDS011;27025;51.986;5.984;2023-02-11T06:37:10;42.50;;;24.87;;
18378;SDS011;27025;51.986;5.984;2023-02-11T06:39:36;45.15;;;27.38;;
18378;SDS011;27025;51.986;5.984;2023-02-11T06:42:02;44.63;;;28.08;;
18378;SDS011;27025;51.986;5.984;2023-02-11T06:44:29;48.35;;;29.45;;
18378;SDS011;27025;51.986;5.984;2023-02-11T06:46:56;47.17;;;29.20;;
18378;SDS011;27025;51.986;5.984;2023-02-11T06:49:22;50.65;;;30.48;;
18378;SDS011;27025;51.986;5.984;2023-02-11T06:51:48;50.63;;;31.05;;
18378;SDS011;27025;51.986;5.984;2023-02-11T06:54:14;46.20;;;26.70;;
18378;SDS011;27025;51.986;5.984;2023-02-11T06:56:40;53.28;;;28.80;;
18378;SDS011;27025;51.986;5.984;2023-02-11T06:59:06;51.97;;;31.73;;
18378;SDS011;27025;51.986;5.984;2023-02-11T07:01:32;57.60;;;31.85;;
18378;SDS011;27025;51.986;5.984;2023-02-11T07:03:58;50.43;;;27.73;;
18378;SDS011;27025;51.986;5.984;2023-02-11T07:06:25;49.63;;;26.73;;
18378;SDS011;27025;51.986;5.984;2023-02-11T07:08:51;56.75;;;33.97;;
18378;SDS011;27025;51.986;5.984;2023-02-11T07:11:19;59.28;;;34.50;;
18378;SDS011;27025;51.986;5.984;2023-02-11T07:13:48;54.55;;;33.35;;
18378;SDS011;27025;51.986;5.984;2023-02-11T07:16:15;55.70;;;29.50;;
18378;SDS011;27025;51.986;5.984;2023-02-11T07:18:41;57.95;;;34.25;;
18378;SDS011;27025;51.986;5.984;2023-02-11T07:21:08;54.07;;;29.67;;
18378;SDS011;27025;51.986;5.984;2023-02-11T07:23:35;61.07;;;30.63;;
18378;SDS011;27025;51.986;5.984;2023-02-11T07:26:05;52.90;;;29.07;;
18378;SDS011;27025;51.986;5.984;2023-02-11T07:28:33;67.20;;;39.50;;
18378;SDS011;27025;51.986;5.984;2023-02-11T07:31:04;65.68;;;36.75;;
18378;SDS011;27025;51.986;5.984;2023-02-11T07:33:30;61.67;;;33.23;;
18378;SDS011;27025;51.986;5.984;2023-02-11T07:35:58;60.43;;;32.77;;
18378;SDS011;27025;51.986;5.984;2023-02-11T07:38:24;71.32;;;40.15;;
18378;SDS011;27025;51.986;5.984;2023-02-11T07:40:50;66.13;;;35.50;;
18378;SDS011;27025;51.986;5.984;2023-02-11T07:43:16;66.00;;;39.67;;
18378;SDS011;27025;51.986;5.984;2023-02-11T07:45:42;73.65;;;39.80;;
18378;SDS011;27025;51.986;5.984;2023-02-11T07:48:08;61.63;;;33.80;;
18378;SDS011;27025;51.986;5.984;2023-02-11T07:50:34;68.43;;;40.38;;
18378;SDS011;27025;51.986;5.984;2023-02-11T07:53:01;65.90;;;39.07;;
18378;SDS011;27025;51.986;5.984;2023-02-11T07:55:27;70.03;;;40.50;;
18378;SDS011;27025;51.986;5.984;2023-02-11T07:57:53;76.33;;;44.87;;
18378;SDS011;27025;51.986;5.984;2023-02-11T08:00:19;73.43;;;42.37;;
18378;SDS011;27025;51.986;5.984;2023-02-11T08:02:45;75.03;;;44.63;;
18378;SDS011;27025;51.986;5.984;2023-02-11T08:05:11;79.28;;;44.08;;
18378;SDS011;27025;51.986;5.984;2023-02-11T08:07:37;73.63;;;44.30;;
18378;SDS011;27025;51.986;5.984;2023-02-11T08:10:03;69.18;;;42.50;;
18378;SDS011;27025;51.986;5.984;2023-02-11T08:12:29;73.80;;;44.30;;
18378;SDS011;27025;51.986;5.984;2023-02-11T08:14:55;77.80;;;44.13;;
18378;SDS011;27025;51.986;5.984;2023-02-11T08:17:21;72.28;;;44.38;;
18378;SDS011;27025;51.986;5.984;2023-02-11T08:19:48;74.75;;;43.50;;
18378;SDS011;27025;51.986;5.984;2023-02-11T08:22:14;74.25;;;45.25;;
18378;SDS011;27025;51.986;5.984;2023-02-11T08:24:40;74.60;;;37.83;;
18378;SDS011;27025;51.986;5.984;2023-02-11T08:27:06;69.82;;;39.85;;
18378;SDS011;27025;51.986;5.984;2023-02-11T08:29:32;81.72;;;44.75;;
18378;SDS011;27025;51.986;5.984;2023-02-11T08:31:58;75.43;;;45.97;;
18378;SDS011;27025;51.986;5.984;2023-02-11T08:34:24;77.13;;;45.58;;
18378;SDS011;27025;51.986;5.984;2023-02-11T08:36:50;81.68;;;46.63;;
18378;SDS011;27025;51.986;5.984;2023-02-11T08:39:17;77.13;;;40.00;;
18378;SDS011;27025;51.986;5.984;2023-02-11T08:41:43;82.60;;;47.95;;
18378;SDS011;27025;51.986;5.984;2023-02-11T08:44:09;80.43;;;47.73;;
18378;SDS011;27025;51.986;5.984;2023-02-11T08:46:35;79.13;;;44.83;;
18378;SDS011;27025;51.986;5.984;2023-02-11T08:49:01;81.80;;;48.78;;
18378;SDS011;27025;51.986;5.984;2023-02-11T08:51:27;80.82;;;48.50;;
18378;SDS011;27025;51.986;5.984;2023-02-11T08:53:57;77.60;;;49.00;;
18378;SDS011;27025;51.986;5.984;2023-02-11T08:56:24;80.72;;;48.42;;
18378;SDS011;27025;51.986;5.984;2023-02-11T08:58:51;75.55;;;47.53;;
18378;SDS011;27025;51.986;5.984;2023-02-11T09:01:18;79.85;;;47.38;;
18378;SDS011;27025;51.986;5.984;2023-02-11T09:03:45;75.40;;;46.67;;
18378;SDS011;27025;51.986;5.984;2023-02-11T09:06:12;74.63;;;46.72;;
18378;SDS011;27025;51.986;5.984;2023-02-11T09:08:39;76.43;;;46.23;;
18378;SDS011;27025;51.986;5.984;2023-02-11T09:11:05;70.95;;;45.15;;
18378;SDS011;27025;51.986;5.984;2023-02-11T09:13:32;70.22;;;45.90;;
18378;SDS011;27025;51.986;5.984;2023-02-11T09:15:58;71.22;;;44.95;;
18378;SDS011;27025;51.986;5.984;2023-02-11T09:18:25;71.85;;;46.40;;
18378;SDS011;27025;51.986;5.984;2023-02-11T09:20:52;72.35;;;45.83;;
18378;SDS011;27025;51.986;5.984;2023-02-11T09:23:18;70.72;;;44.67;;
18378;SDS011;27025;51.986;5.984;2023-02-11T09:25:44;67.82;;;46.00;;
18378;SDS011;27025;51.986;5.984;2023-02-11T09:28:10;69.03;;;46.00;;
18378;SDS011;27025;51.986;5.984;2023-02-11T09:30:36;67.75;;;45.10;;
18378;SDS011;27025;51.986;5.984;2023-02-11T09:33:03;71.60;;;46.35;;
18378;SDS011;27025;51.986;5.984;2023-02-11T09:35:29;68.22;;;45.53;;
18378;SDS011;27025;51.986;5.984;2023-02-11T09:37:55;66.68;;;46.50;;
18378;SDS011;27025;51.986;5.984;2023-02-11T09:40:21;69.68;;;46.80;;
18378;SDS011;27025;51.986;5.984;2023-02-11T09:42:52;70.85;;;46.90;;
18378;SDS011;27025;51.986;5.984;2023-02-11T09:45:25;69.97;;;47.17;;
18378;SDS011;27025;51.986;5.984;2023-02-11T09:47:53;70.07;;;46.47;;
18378;SDS011;27025;51.986;5.984;2023-02-11T09:50:21;67.50;;;46.22;;
18378;SDS011;27025;51.986;5.984;2023-02-11T09:53:05;68.30;;;46.80;;
18378;SDS011;27025;51.986;5.984;2023-02-11T09:55:37;68.75;;;46.70;;
18378;SDS011;27025;51.986;5.984;2023-02-11T09:58:06;65.45;;;45.67;;
18378;SDS011;27025;51.986;5.984;2023-02-11T10:00:36;69.77;;;46.87;;
18378;SDS011;27025;51.986;5.984;2023-02-11T10:03:15;68.13;;;45.97;;
18378;SDS011;27025;51.986;5.984;2023-02-11T10:08:45;65.60;;;45.63;;
18378;SDS011;27025;51.986;5.984;2023-02-11T10:24:00;56.92;;;43.25;;
18378;SDS011;27025;51.986;5.984;2023-02-11T10:26:29;60.35;;;43.17;;
18378;SDS011;27025;51.986;5.984;2023-02-11T10:28:55;58.03;;;42.95;;
18378;SDS011;27025;51.986;5.984;2023-02-11T10:31:35;56.33;;;42.20;;
18378;SDS011;27025;51.986;5.984;2023-02-11T10:34:03;58.78;;;41.72;;
18378;SDS011;27025;51.986;5.984;2023-02-11T10:36:34;58.25;;;43.28;;
18378;SDS011;27025;51.986;5.984;2023-02-11T10:39:09;57.05;;;41.85;;
18378;SDS011;27025;51.986;5.984;2023-02-11T10:41:37;53.83;;;40.42;;
18378;SDS011;27025;51.986;5.984;2023-02-11T10:44:07;56.17;;;40.80;;
18378;SDS011;27025;51.986;5.984;2023-02-11T10:46:34;56.53;;;40.17;;
18378;SDS011;27025;51.986;5.984;2023-02-11T10:49:04;52.67;;;40.08;;
18378;SDS011;27025;51.986;5.984;2023-02-11T10:51:31;54.17;;;40.55;;
18378;SDS011;27025;51.986;5.984;2023-02-11T10:56:35;52.15;;;39.90;;
18378;SDS011;27025;51.986;5.984;2023-02-11T11:01:53;49.25;;;39.42;;
18378;SDS011;27025;51.986;5.984;2023-02-11T11:04:25;48.78;;;39.20;;
18378;SDS011;27025;51.986;5.984;2023-02-11T11:06:53;47.92;;;38.83;;
18378;SDS011;27025;51.986;5.984;2023-02-11T11:09:26;48.30;;;38.67;;
18378;SDS011;27025;51.986;5.984;2023-02-11T11:11:54;49.08;;;38.30;;
18378;SDS011;27025;51.986;5.984;2023-02-11T11:14:20;45.45;;;38.05;;
18378;SDS011;27025;51.986;5.984;2023-02-11T11:16:53;46.13;;;37.63;;
18378;SDS011;27025;51.986;5.984;2023-02-11T11:19:20;40.13;;;31.57;;
18378;SDS011;27025;51.986;5.984;2023-02-11T11:24:17;49.97;;;36.25;;
18378;SDS011;27025;51.986;5.984;2023-02-11T11:26:49;48.03;;;40.92;;
18378;SDS011;27025;51.986;5.984;2023-02-11T11:29:23;49.05;;;36.38;;
18378;SDS011;27025;51.986;5.984;2023-02-11T11:32:00;46.05;;;37.90;;
18378;SDS011;27025;51.986;5.984;2023-02-11T11:34:29;46.40;;;36.28;;
18378;SDS011;27025;51.986;5.984;2023-02-11T11:36:56;45.55;;;35.67;;
18378;SDS011;27025;51.986;5.984;2023-02-11T11:39:24;44.27;;;31.40;;
18378;SDS011;27025;51.986;5.984;2023-02-11T11:41:55;41.57;;;30.20;;
18378;SDS011;27025;51.986;5.984;2023-02-11T11:46:47;43.70;;;33.42;;
18378;SDS011;27025;51.986;5.984;2023-02-11T11:49:28;41.50;;;31.77;;
18378;SDS011;27025;51.986;5.984;2023-02-11T11:54:42;36.08;;;30.73;;
18378;SDS011;27025;51.986;5.984;2023-02-11T11:57:12;37.17;;;29.92;;
18378;SDS011;27025;51.986;5.984;2023-02-11T11:59:39;38.40;;;29.92;;
18378;SDS011;27025;51.986;5.984;2023-02-11T12:22:58;31.43;;;21.60;;
18378;SDS011;27025;51.986;5.984;2023-02-11T12:25:27;29.43;;;21.00;;
18378;SDS011;27025;51.986;5.984;2023-02-11T12:27:56;27.52;;;23.75;;
18378;SDS011;27025;51.986;5.984;2023-02-11T12:30:46;24.45;;;21.75;;
18378;SDS011;27025;51.986;5.984;2023-02-11T12:33:20;27.42;;;22.85;;
18378;SDS011;27025;51.986;5.984;2023-02-11T12:35:55;26.67;;;22.00;;
18378;SDS011;27025;51.986;5.984;2023-02-11T12:38:26;24.80;;;21.20;;
18378;SDS011;27025;51.986;5.984;2023-02-11T12:41:00;24.17;;;20.38;;
18378;SDS011;27025;51.986;5.984;2023-02-11T12:56:51;20.65;;;15.88;;
18378;SDS011;27025;51.986;5.984;2023-02-11T12:59:35;19.13;;;14.95;;
18378;SDS011;27025;51.986;5.984;2023-02-11T13:02:05;20.17;;;15.68;;
18378;SDS011;27025;51.986;5.984;2023-02-11T13:04:39;18.57;;;13.87;;
18378;SDS011;27025;51.986;5.984;2023-02-11T13:07:13;18.70;;;14.85;;
18378;SDS011;27025;51.986;5.984;2023-02-11T13:09:42;19.42;;;14.85;;
18378;SDS011;27025;51.986;5.984;2023-02-11T13:12:09;17.80;;;12.40;;
18378;SDS011;27025;51.986;5.984;2023-02-11T13:14:56;15.93;;;12.77;;
18378;SDS011;27025;51.986;5.984;2023-02-11T13:23:12;17.47;;;12.07;;
18378;SDS011;27025;51.986;5.984;2023-02-11T13:25:56;17.80;;;12.63;;
18378;SDS011;27025;51.986;5.984;2023-02-11T13:28:30;13.43;;;12.07;;
18378;SDS011;27025;51.986;5.984;2023-02-11T13:31:00;18.00;;;12.00;;
18378;SDS011;27025;51.986;5.984;2023-02-11T13:38:25;16.17;;;12.60;;
18378;SDS011;27025;51.986;5.984;2023-02-11T13:43:37;14.40;;;12.10;;
18378;SDS011;27025;51.986;5.984;2023-02-11T13:46:04;16.23;;;11.87;;
18378;SDS011;27025;51.986;5.984;2023-02-11T13:48:32;16.92;;;14.27;;
18378;SDS011;27025;51.986;5.984;2023-02-11T13:51:00;15.43;;;13.60;;
18378;SDS011;27025;51.986;5.984;2023-02-11T13:53:27;16.03;;;13.30;;
18378;SDS011;27025;51.986;5.984;2023-02-11T13:56:08;17.70;;;13.77;;
18378;SDS011;27025;51.986;5.984;2023-02-11T13:58:56;19.63;;;14.77;;
18378;SDS011;27025;51.986;5.984;2023-02-11T14:04:22;19.30;;;14.37;;
18378;SDS011;27025;51.986;5.984;2023-02-11T14:13:23;15.63;;;13.70;;
18378;SDS011;27025;51.986;5.984;2023-02-11T14:21:14;21.23;;;16.13;;
18378;SDS011;27025;51.986;5.984;2023-02-11T14:23:41;20.80;;;16.10;;
18378;SDS011;27025;51.986;5.984;2023-02-11T14:28:34;20.27;;;16.90;;
18378;SDS011;27025;51.986;5.984;2023-02-11T14:31:11;20.30;;;17.00;;
18378;SDS011;27025;51.986;5.984;2023-02-11T14:33:46;20.90;;;16.43;;
18378;SDS011;27025;51.986;5.984;2023-02-11T14:36:34;20.80;;;16.97;;
18378;SDS011;27025;51.986;5.984;2023-02-11T14:41:40;23.30;;;15.73;;
18378;SDS011;27025;51.986;5.984;2023-02-11T14:44:12;19.37;;;16.57;;
18378;SDS011;27025;51.986;5.984;2023-02-11T14:46:42;19.13;;;15.97;;
18378;SDS011;27025;51.986;5.984;2023-02-11T14:49:11;20.30;;;16.77;;
18378;SDS011;27025;51.986;5.984;2023-02-11T14:51:39;19.60;;;15.73;;
18378;SDS011;27025;51.986;5.984;2023-02-11T14:54:10;19.87;;;15.97;;
18378;SDS011;27025;51.986;5.984;2023-02-11T14:56:39;22.73;;;15.87;;
18378;SDS011;27025;51.986;5.984;2023-02-11T14:59:15;18.80;;;15.30;;
18378;SDS011;27025;51.986;5.984;2023-02-11T15:01:43;19.13;;;15.70;;
18378;SDS011;27025;51.986;5.984;2023-02-11T15:06:48;19.17;;;15.27;;
18378;SDS011;27025;51.986;5.984;2023-02-11T15:09:22;19.17;;;15.53;;
18378;SDS011;27025;51.986;5.984;2023-02-11T15:11:52;18.37;;;15.27;;
18378;SDS011;27025;51.986;5.984;2023-02-11T15:14:22;19.63;;;16.77;;
18378;SDS011;27025;51.986;5.984;2023-02-11T15:16:48;17.73;;;15.50;;
18378;SDS011;27025;51.986;5.984;2023-02-11T15:19:20;19.23;;;16.52;;
18378;SDS011;27025;51.986;5.984;2023-02-11T15:21:47;20.20;;;15.43;;
18378;SDS011;27025;51.986;5.984;2023-02-11T15:24:22;16.73;;;14.77;;
18378;SDS011;27025;51.986;5.984;2023-02-11T15:26:55;17.83;;;15.23;;
18378;SDS011;27025;51.986;5.984;2023-02-11T15:29:41;19.90;;;14.90;;
18378;SDS011;27025;51.986;5.984;2023-02-11T15:32:15;19.03;;;15.10;;
18378;SDS011;27025;51.986;5.984;2023-02-11T15:34:42;24.27;;;19.73;;
18378;SDS011;27025;51.986;5.984;2023-02-11T15:37:27;26.10;;;20.37;;
18378;SDS011;27025;51.986;5.984;2023-02-11T15:39:54;27.40;;;20.60;;
18378;SDS011;27025;51.986;5.984;2023-02-11T15:42:25;27.03;;;21.23;;
18378;SDS011;27025;51.986;5.984;2023-02-11T15:47:36;22.03;;;16.43;;
18378;SDS011;27025;51.986;5.984;2023-02-11T15:50:03;19.17;;;14.93;;
18378;SDS011;27025;51.986;5.984;2023-02-11T15:52:29;18.30;;;14.50;;
18378;SDS011;27025;51.986;5.984;2023-02-11T15:54:57;17.33;;;14.43;;
18378;SDS011;27025;51.986;5.984;2023-02-11T15:57:25;18.73;;;14.40;;
18378;SDS011;27025;51.986;5.984;2023-02-11T15:59:52;17.93;;;14.07;;
18378;SDS011;27025;51.986;5.984;2023-02-11T16:02:19;18.10;;;13.93;;
18378;SDS011;27025;51.986;5.984;2023-02-11T16:04:53;17.30;;;14.27;;
18378;SDS011;27025;51.986;5.984;2023-02-11T16:10:15;18.13;;;14.73;;
18378;SDS011;27025;51.986;5.984;2023-02-11T16:12:48;20.10;;;14.13;;
18378;SDS011;27025;51.986;5.984;2023-02-11T16:18:24;20.13;;;13.73;;
18378;SDS011;27025;51.986;5.984;2023-02-11T16:20:48;15.70;;;13.33;;
18378;SDS011;27025;51.986;5.984;2023-02-11T16:23:20;18.85;;;15.98;;
18378;SDS011;27025;51.986;5.984;2023-02-11T16:25:47;21.27;;;14.23;;
18378;SDS011;27025;51.986;5.984;2023-02-11T16:28:13;15.47;;;12.63;;
18378;SDS011;27025;51.986;5.984;2023-02-11T16:30:40;14.80;;;13.20;;
18378;SDS011;27025;51.986;5.984;2023-02-11T16:33:08;20.17;;;13.43;;
18378;SDS011;27025;51.986;5.984;2023-02-11T16:35:34;14.37;;;12.57;;
18378;SDS011;27025;51.986;5.984;2023-02-11T16:38:01;19.03;;;13.57;;
18378;SDS011;27025;51.986;5.984;2023-02-11T16:40:27;16.77;;;14.00;;
18378;SDS011;27025;51.986;5.984;2023-02-11T16:42:53;17.50;;;14.35;;
18378;SDS011;27025;51.986;5.984;2023-02-11T16:45:19;20.67;;;14.10;;
18378;SDS011;27025;51.986;5.984;2023-02-11T16:47:46;16.43;;;12.73;;